Time;durP1;ratioP1;P1;durP2;ratioP2;P2;SDS_P1;SDS_P2;PMS_P1;PMS_P2;Temp;Humidity;BMP_temperature;BMP_pressure;BME280_temperature;BME280_humidity;BME280_pressure;Samples;Min_cycle;Max_cycle;Signal;HPM_P1;HPM_P2
2021/11/18 00:00:39;;;;;;;124.24;65.85;;;;;;;-3.69;62.39;102135.80;451046;112;924468;-92
2021/11/18 00:01:51;;;;;;;126.66;67.37;;;;;;;-3.64;62.28;102138.23;433453;114;922487;-92
2021/11/18 00:02:55;;;;;;;126.52;66.56;;;;;;;-3.59;62.17;102134.37;437109;115;922086;-94
2021/11/18 00:04:03;;;;;;;120.54;65.72;;;;;;;-3.55;62.01;102135.05;438375;114;922426;-92
2021/11/18 00:06:07;;;;;;;117.59;61.76;;;;;;;-3.52;61.89;102137.52;459353;105;923686;31
2021/11/18 00:07:17;;;;;;;128.01;65.20;;;;;;;-3.47;61.77;102138.12;456308;114;922108;-92
2021/11/18 00:08:28;;;;;;;128.11;66.87;;;;;;;-3.47;61.62;102130.98;456138;115;922316;-90
2021/11/18 00:09:33;;;;;;;131.11;67.53;;;;;;;-3.46;61.55;102139.84;452698;110;922278;-93
2021/11/18 00:10:43;;;;;;;131.51;69.75;;;;;;;-3.45;61.45;102138.91;461265;112;922653;-93
2021/11/18 00:11:50;;;;;;;130.66;67.54;;;;;;;-3.44;61.43;102137.96;453813;113;922094;-92
2021/11/18 00:13:01;;;;;;;125.73;65.85;;;;;;;-3.43;61.27;102131.69;461494;113;922101;-92
2021/11/18 00:14:20;;;;;;;129.79;65.27;;;;;;;-3.43;61.17;102139.69;443493;117;922314;-92
2021/11/18 00:15:29;;;;;;;133.39;66.49;;;;;;;-3.42;61.12;102136.08;444291;116;922776;-93
2021/11/18 00:16:36;;;;;;;127.51;66.73;;;;;;;-3.43;61.11;102129.88;451466;116;922580;-93
2021/11/18 00:17:44;;;;;;;125.62;66.24;;;;;;;-3.40;61.08;102129.70;449133;116;922347;-96
2021/11/18 00:18:50;;;;;;;123.02;66.96;;;;;;;-3.38;61.00;102121.62;441753;118;930723;-95
2021/11/18 00:19:54;;;;;;;130.15;64.15;;;;;;;-3.38;60.89;102118.95;449021;118;922226;-92
2021/11/18 00:21:05;;;;;;;126.86;65.78;;;;;;;-3.37;60.69;102124.20;449502;116;922311;-91
2021/11/18 00:22:12;;;;;;;124.14;63.58;;;;;;;-3.37;60.71;102121.54;444756;117;922287;-94
2021/11/18 00:23:21;;;;;;;129.28;64.29;;;;;;;-3.37;60.56;102128.67;450132;116;922071;-94
2021/11/18 00:24:36;;;;;;;137.91;75.03;;;;;;;-3.40;60.33;102123.50;442179;118;922029;-94
2021/11/18 00:25:43;;;;;;;152.39;80.26;;;;;;;-3.44;60.27;102125.49;441696;117;922223;-91
2021/11/18 00:26:56;;;;;;;149.57;76.91;;;;;;;-3.48;59.99;102123.09;446592;118;922356;-93
2021/11/18 00:28:17;;;;;;;147.69;77.21;;;;;;;-3.56;59.83;102115.52;461340;111;929867;-91
2021/11/18 00:29:23;;;;;;;146.14;76.16;;;;;;;-3.63;59.83;102123.94;457349;114;923141;-94
2021/11/18 00:30:28;;;;;;;133.46;65.62;;;;;;;-3.72;59.86;102113.80;455457;115;921942;-94
2021/11/18 00:31:36;;;;;;;122.50;63.48;;;;;;;-3.74;60.10;102111.22;455959;114;922099;-93
2021/11/18 00:32:43;;;;;;;124.74;64.34;;;;;;;-3.74;60.27;102113.02;455048;114;926714;-94
2021/11/18 00:33:50;;;;;;;114.05;60.63;;;;;;;-3.73;60.35;102106.75;457075;115;922774;-96
2021/11/18 00:34:57;;;;;;;138.48;69.37;;;;;;;-3.72;60.30;102111.14;449632;116;922377;-92
2021/11/18 00:36:06;;;;;;;156.54;82.69;;;;;;;-3.72;60.20;102109.34;447726;115;922898;-90
2021/11/18 00:37:11;;;;;;;160.29;82.91;;;;;;;-3.73;59.98;102106.75;454296;115;922172;-93
2021/11/18 00:38:17;;;;;;;157.58;81.48;;;;;;;-3.79;59.73;102107.95;454630;113;922241;-94
2021/11/18 00:39:42;;;;;;;157.22;79.76;;;;;;;-3.83;59.79;102111.73;461035;113;922245;-89
2021/11/18 00:40:50;;;;;;;150.95;81.39;;;;;;;-3.86;60.00;102120.75;459449;113;922180;-93
2021/11/18 00:41:59;;;;;;;158.13;80.02;;;;;;;-3.85;60.12;102108.28;459974;112;921845;-92
2021/11/18 00:43:06;;;;;;;147.92;80.52;;;;;;;-3.85;60.08;102109.15;455596;115;921889;-92
2021/11/18 00:44:17;;;;;;;150.97;80.06;;;;;;;-3.82;60.05;102114.33;449100;116;922342;-93
2021/11/18 00:45:21;;;;;;;135.63;74.95;;;;;;;-3.82;60.06;102111.66;460377;115;922615;-93
2021/11/18 00:46:33;;;;;;;137.46;74.04;;;;;;;-3.80;59.99;102112.41;456870;112;923147;-92
2021/11/18 00:47:36;;;;;;;138.95;74.29;;;;;;;-3.76;59.96;102109.59;456094;112;922184;-93
2021/11/18 00:48:42;;;;;;;137.24;72.64;;;;;;;-3.76;59.92;102107.80;451694;117;922158;-93
2021/11/18 00:49:46;;;;;;;137.78;72.74;;;;;;;-3.74;59.89;102107.69;455686;112;921937;-90
2021/11/18 00:50:54;;;;;;;140.79;74.06;;;;;;;-3.73;59.84;102107.61;457336;112;922174;-93
2021/11/18 00:52:09;;;;;;;118.39;65.29;;;;;;;-3.71;59.78;102102.20;459829;112;922496;-94
2021/11/18 00:53:22;;;;;;;124.40;65.69;;;;;;;-3.68;59.71;102107.34;452486;109;922650;31
2021/11/18 00:54:27;;;;;;;124.42;64.23;;;;;;;-3.67;59.62;102104.60;431400;118;923216;-93
2021/11/18 00:55:34;;;;;;;118.05;65.21;;;;;;;-3.65;59.54;102105.39;438522;119;922082;-96
2021/11/18 00:56:45;;;;;;;123.29;64.92;;;;;;;-3.63;59.47;102110.61;442869;117;922057;-94
2021/11/18 00:58:02;;;;;;;120.97;64.26;;;;;;;-3.62;59.38;102104.34;438928;116;922369;-92
2021/11/18 00:59:12;;;;;;;120.89;66.26;;;;;;;-3.60;59.23;102102.45;426725;120;922359;-96
2021/11/18 01:00:25;;;;;;;118.53;64.55;;;;;;;-3.60;59.11;102105.98;438150;118;922451;-94
2021/11/18 01:01:43;;;;;;;114.67;63.22;;;;;;;-3.62;58.97;102102.53;444096;117;922328;-94
2021/11/18 01:02:54;;;;;;;117.51;63.24;;;;;;;-3.62;58.94;102109.67;437092;119;922265;-93
2021/11/18 01:04:18;;;;;;;118.74;62.61;;;;;;;-3.63;58.87;102103.47;441059;111;922139;-93
2021/11/18 01:05:28;;;;;;;114.64;62.75;;;;;;;-3.63;58.79;102107.95;441452;118;922191;-96
2021/11/18 01:06:40;;;;;;;109.53;60.04;;;;;;;-3.64;58.66;102098.25;453734;109;922411;-96
2021/11/18 01:07:44;;;;;;;109.07;59.87;;;;;;;-3.65;58.58;102104.52;456695;114;922018;-93
2021/11/18 01:08:57;;;;;;;96.72;52.46;;;;;;;-3.66;58.52;102105.47;455533;114;922202;-92
2021/11/18 01:10:10;;;;;;;86.74;49.41;;;;;;;-3.68;58.47;102100.21;453590;116;922335;-94
2021/11/18 01:11:21;;;;;;;97.21;52.06;;;;;;;-3.68;58.47;102099.34;456740;113;923145;-94
2021/11/18 01:12:26;;;;;;;98.94;53.74;;;;;;;-3.69;58.44;102103.81;451648;114;922250;-93
2021/11/18 01:13:35;;;;;;;90.64;52.94;;;;;;;-3.71;58.30;102096.88;446973;116;922071;-92
2021/11/18 01:14:43;;;;;;;100.86;55.08;;;;;;;-3.73;58.24;102093.42;447142;117;922479;-93
2021/11/18 01:15:50;;;;;;;94.47;55.14;;;;;;;-3.74;58.24;102103.22;443682;117;922212;-93
2021/11/18 01:17:02;;;;;;;97.57;54.44;;;;;;;-3.75;58.19;102095.33;448333;115;922349;-93
2021/11/18 01:18:17;;;;;;;94.77;54.75;;;;;;;-3.76;58.14;102101.60;453660;114;922059;-92
2021/11/18 01:19:32;;;;;;;100.22;58.31;;;;;;;-3.77;58.09;102098.08;457362;114;921943;-93
2021/11/18 01:20:37;;;;;;;98.52;55.53;;;;;;;-3.80;57.97;102095.56;457339;113;922366;-93
2021/11/18 01:21:48;;;;;;;95.77;54.49;;;;;;;-3.82;57.96;102102.80;456261;115;922022;-91
2021/11/18 01:23:01;;;;;;;101.93;53.44;;;;;;;-3.83;57.86;102101.08;454230;116;922762;-94
2021/11/18 01:34:40;;;;;;;82.47;40.44;;;;;;;-4.26;57.90;102094.59;489423;107;946880;-90
2021/11/18 01:35:47;;;;;;;91.68;45.22;;;;;;;-4.43;58.12;102092.84;495162;107;922082;-92
2021/11/18 01:37:00;;;;;;;90.40;49.90;;;;;;;-4.35;58.25;102093.27;477658;108;1203653;-90
2021/11/18 01:38:08;;;;;;;90.09;47.26;;;;;;;-4.46;58.25;102100.11;475441;109;922025;-91
2021/11/18 01:39:15;;;;;;;83.64;44.32;;;;;;;-4.44;58.21;102096.44;474446;105;925236;-93
2021/11/18 01:40:27;;;;;;;78.51;44.89;;;;;;;-4.42;58.20;102091.04;474730;109;922240;-92
2021/11/18 01:41:37;;;;;;;78.82;43.62;;;;;;;-4.41;58.23;102090.93;473154;107;921977;-91
2021/11/18 01:42:56;;;;;;;78.70;42.27;;;;;;;-4.38;58.23;102087.26;426852;122;922136;-94
2021/11/18 01:44:06;;;;;;;79.90;43.08;;;;;;;-4.36;58.28;102088.05;457200;112;922094;-91
2021/11/18 01:45:12;;;;;;;79.83;43.18;;;;;;;-4.34;58.28;102091.47;466741;111;921927;-92
2021/11/18 01:46:30;;;;;;;76.17;43.02;;;;;;;-4.32;58.30;102089.59;464909;112;921792;-91
2021/11/18 01:47:45;;;;;;;75.90;42.81;;;;;;;-4.30;58.26;102082.39;455190;112;922434;-91
2021/11/18 01:48:56;;;;;;;71.66;42.08;;;;;;;-4.30;58.28;102085.06;459988;113;921831;-92
2021/11/18 01:50:34;;;;;;;74.77;43.18;;;;;;;-4.30;58.17;102095.71;469126;108;922484;31
2021/11/18 01:51:47;;;;;;;73.21;40.79;;;;;;;-4.30;58.17;102087.72;443104;116;922388;-91
2021/11/18 01:53:05;;;;;;;69.19;39.60;;;;;;;-4.30;58.13;102091.22;450968;113;923024;-92
2021/11/18 01:54:14;;;;;;;69.76;39.84;;;;;;;-4.31;58.01;102086.00;465539;111;922224;-91
2021/11/18 01:56:43;;;;;;;67.46;37.92;;;;;;;-4.34;58.03;102095.00;464522;112;922734;-93
2021/11/18 01:57:51;;;;;;;66.69;36.93;;;;;;;-4.33;58.00;102096.72;466902;112;922539;-90
2021/11/18 01:59:01;;;;;;;58.13;34.39;;;;;;;-4.33;58.00;102090.53;462877;112;922555;-90
2021/11/18 02:00:11;;;;;;;54.38;35.78;;;;;;;-4.32;57.95;102097.58;462066;112;922560;-93
2021/11/18 02:01:18;;;;;;;62.69;36.11;;;;;;;-4.32;57.91;102098.45;462580;112;925021;-89
2021/11/18 02:02:26;;;;;;;63.51;36.81;;;;;;;-4.32;57.84;102095.78;463357;112;922638;-91
2021/11/18 02:03:50;;;;;;;60.42;34.73;;;;;;;-4.31;57.82;102096.65;463588;112;922498;-92
2021/11/18 02:05:00;;;;;;;57.13;34.38;;;;;;;-4.31;57.86;102100.17;453994;113;922663;-91
2021/11/18 02:06:17;;;;;;;54.84;34.28;;;;;;;-4.30;57.82;102093.05;454910;114;922209;-94
2021/11/18 02:07:21;;;;;;;54.76;34.37;;;;;;;-4.31;57.78;102093.98;453803;112;922223;-90
2021/11/18 02:08:26;;;;;;;59.59;34.45;;;;;;;-4.33;57.71;102095.86;436646;118;922475;-93
2021/11/18 02:09:43;;;;;;;54.68;34.58;;;;;;;-4.33;57.71;102095.86;451618;115;922337;-91
2021/11/18 02:10:51;;;;;;;59.23;34.68;;;;;;;-4.35;57.75;102090.61;456837;114;922173;-94
2021/11/18 02:11:59;;;;;;;61.90;35.17;;;;;;;-4.36;57.73;102090.72;456938;115;922408;-92
2021/11/18 02:13:06;;;;;;;60.18;35.66;;;;;;;-4.37;57.75;102084.52;456216;114;923106;-93
2021/11/18 02:14:14;;;;;;;55.91;34.29;;;;;;;-4.38;57.77;102088.13;453088;115;922419;-92
2021/11/18 02:15:24;;;;;;;50.94;32.66;;;;;;;-4.37;57.82;102086.33;445211;117;922606;-93
2021/11/18 02:16:29;;;;;;;49.46;33.26;;;;;;;-4.36;57.81;102086.25;457872;115;922615;-91
2021/11/18 02:17:35;;;;;;;50.33;32.95;;;;;;;-4.36;57.82;102091.58;457932;114;922202;-91
2021/11/18 02:18:42;;;;;;;59.39;35.53;;;;;;;-4.35;57.81;102089.74;456710;114;922379;-92
2021/11/18 02:19:49;;;;;;;56.16;34.11;;;;;;;-4.37;57.79;102088.98;458683;114;922211;-93
2021/11/18 02:20:59;;;;;;;55.70;35.60;;;;;;;-4.38;57.83;102088.13;459184;114;925044;-90
2021/11/18 02:22:05;;;;;;;55.29;35.44;;;;;;;-4.38;57.78;102085.46;458856;111;921995;-91
2021/11/18 02:23:16;;;;;;;46.87;32.63;;;;;;;-4.38;57.70;102090.78;455639;114;922220;-93
2021/11/18 02:24:30;;;;;;;47.18;31.46;;;;;;;-4.39;57.67;102088.20;457600;114;922165;-94
2021/11/18 02:25:36;;;;;;;42.34;29.59;;;;;;;-4.40;57.75;102084.67;458849;114;922111;-91
2021/11/18 02:26:40;;;;;;;38.34;27.66;;;;;;;-4.40;57.89;102081.14;458544;115;922315;-90
2021/11/18 02:27:45;;;;;;;51.45;28.81;;;;;;;-4.40;57.93;102086.47;454942;114;922333;-89
2021/11/18 02:28:52;;;;;;;31.45;26.92;;;;;;;-4.40;57.90;102090.00;456545;112;922937;-91
2021/11/18 02:29:59;;;;;;;38.58;27.73;;;;;;;-4.40;57.96;102084.67;447196;112;922376;-90
2021/11/18 02:31:22;;;;;;;43.42;28.64;;;;;;;-4.40;57.93;102083.81;439482;117;922333;-90
2021/11/18 02:32:35;;;;;;;37.59;26.84;;;;;;;-4.42;57.98;102086.58;445896;117;922298;-92
2021/11/18 02:33:41;;;;;;;35.22;26.11;;;;;;;-4.44;57.89;102091.11;446082;117;922185;-90
2021/11/18 02:34:49;;;;;;;34.86;27.17;;;;;;;-4.46;58.00;102089.45;451010;115;922448;-89
2021/11/18 02:35:57;;;;;;;33.27;25.82;;;;;;;-4.48;58.02;102096.69;450713;115;922222;-90
2021/11/18 02:37:01;;;;;;;29.64;25.24;;;;;;;-4.49;58.10;102094.95;451178;115;922541;-93
2021/11/18 02:38:06;;;;;;;38.34;28.76;;;;;;;-4.52;58.19;102089.81;449742;117;922234;-92
2021/11/18 02:39:12;;;;;;;45.73;30.47;;;;;;;-4.53;58.25;102096.07;451247;115;922977;-91
2021/11/18 02:40:18;;;;;;;44.81;31.16;;;;;;;-4.54;58.37;102097.87;451565;115;922474;-92
2021/11/18 02:41:23;;;;;;;49.12;32.05;;;;;;;-4.56;58.32;102096.22;451525;116;922259;-92
2021/11/18 02:42:29;;;;;;;43.38;30.52;;;;;;;-4.56;58.41;102085.57;449993;117;922589;-95
2021/11/18 02:43:33;;;;;;;50.85;33.12;;;;;;;-4.56;58.46;102093.55;451266;115;922358;-92
2021/11/18 02:44:42;;;;;;;47.98;31.55;;;;;;;-4.56;58.46;102089.09;450872;115;922223;-94
2021/11/18 02:45:51;;;;;;;42.08;28.72;;;;;;;-4.56;58.50;102090.89;450123;115;930158;-92
2021/11/18 02:46:56;;;;;;;41.58;28.37;;;;;;;-4.58;58.52;102091.00;452098;115;922359;-94
2021/11/18 02:48:02;;;;;;;48.52;32.00;;;;;;;-4.58;58.62;102090.14;451163;115;922228;-92
2021/11/18 02:49:09;;;;;;;43.76;30.91;;;;;;;-4.58;58.62;102090.14;451201;115;922442;-95
2021/11/18 02:50:19;;;;;;;47.79;32.16;;;;;;;-4.59;58.69;102091.07;451292;117;922652;-95
2021/11/18 02:51:38;;;;;;;44.54;30.30;;;;;;;-4.48;58.65;102084.23;473636;110;922262;-91
2021/11/18 02:52:45;;;;;;;50.09;31.15;;;;;;;-4.59;58.67;102089.27;463345;113;922384;-92
2021/11/18 02:53:50;;;;;;;48.04;29.26;;;;;;;-4.59;58.69;102094.59;461474;112;922637;-94
2021/11/18 02:54:56;;;;;;;41.90;29.13;;;;;;;-4.61;58.69;102088.48;457736;114;922706;-92
2021/11/18 02:56:06;;;;;;;40.69;28.90;;;;;;;-4.60;58.72;102094.66;439436;119;922482;-92
2021/11/18 02:57:12;;;;;;;44.26;27.76;;;;;;;-4.62;58.75;102095.59;447719;116;923086;-92
2021/11/18 02:58:23;;;;;;;34.97;26.51;;;;;;;-4.62;58.75;102089.41;457244;114;922625;-92
2021/11/18 02:59:25;;;;;;;34.63;25.76;;;;;;;-4.64;58.74;102091.31;456457;114;922930;-92
2021/11/18 03:00:35;;;;;;;36.97;26.14;;;;;;;-4.66;58.71;102096.71;448535;116;922747;-91
2021/11/18 03:01:43;;;;;;;36.21;26.33;;;;;;;-4.68;58.72;102095.92;456929;115;922326;-95
2021/11/18 03:02:53;;;;;;;40.41;27.77;;;;;;;-4.69;58.80;102091.56;457895;114;922878;-89
2021/11/18 03:03:58;;;;;;;41.74;29.05;;;;;;;-4.70;58.79;102081.86;457442;114;922759;-92
2021/11/18 03:05:04;;;;;;;30.83;26.23;;;;;;;-4.70;58.79;102081.86;457562;115;922467;-92
2021/11/18 03:06:09;;;;;;;35.98;27.60;;;;;;;-4.71;58.81;102068.63;457195;114;922552;-93
2021/11/18 03:07:14;;;;;;;41.33;28.56;;;;;;;-4.71;58.80;102082.80;456936;114;922196;-95
2021/11/18 03:08:22;;;;;;;39.43;27.38;;;;;;;-4.72;58.82;102075.74;457676;114;922617;-94
2021/11/18 03:09:28;;;;;;;38.29;27.27;;;;;;;-4.73;58.80;102071.36;457259;114;923015;-95
2021/11/18 03:10:34;;;;;;;39.46;28.42;;;;;;;-4.73;58.86;102071.36;450221;116;922549;-92
2021/11/18 03:11:39;;;;;;;44.12;30.43;;;;;;;-4.72;58.90;102073.08;449026;115;922566;-92
2021/11/18 03:12:43;;;;;;;47.92;30.99;;;;;;;-4.71;58.91;102069.48;454604;114;922358;-93
2021/11/18 03:13:48;;;;;;;45.25;30.64;;;;;;;-4.70;58.86;102073.02;456618;115;922408;-95
2021/11/18 03:14:53;;;;;;;50.62;33.76;;;;;;;-4.69;58.87;102080.06;457632;115;930032;-95
2021/11/18 03:15:59;;;;;;;56.78;35.06;;;;;;;-4.69;58.91;102070.28;448398;116;922496;-94
2021/11/18 03:17:03;;;;;;;57.26;35.24;;;;;;;-4.67;59.01;102073.70;450611;112;922454;-93
2021/11/18 03:18:13;;;;;;;57.39;36.23;;;;;;;-4.63;59.01;102071.72;454531;114;922340;-89
2021/11/18 03:19:18;;;;;;;52.83;34.19;;;;;;;-4.59;58.99;102075.10;448357;115;922693;-92
2021/11/18 03:20:27;;;;;;;55.56;35.04;;;;;;;-4.57;58.94;102081.19;456287;109;922572;-92
2021/11/18 03:21:31;;;;;;;55.33;34.44;;;;;;;-4.57;58.88;102074.06;456847;114;922553;-95
2021/11/18 03:22:38;;;;;;;53.63;34.56;;;;;;;-4.54;58.94;102075.72;457122;114;922775;-92
2021/11/18 03:23:42;;;;;;;52.31;33.62;;;;;;;-4.54;58.99;102073.92;457403;114;922459;-95
2021/11/18 03:24:47;;;;;;;57.63;33.33;;;;;;;-4.51;58.95;102078.20;456165;114;930529;-92
2021/11/18 03:25:53;;;;;;;56.08;33.25;;;;;;;-4.50;59.04;102071.94;447687;116;922477;-93
2021/11/18 03:26:59;;;;;;;62.29;36.52;;;;;;;-4.49;59.08;102071.00;439753;118;922605;-94
2021/11/18 03:28:04;;;;;;;65.26;35.06;;;;;;;-4.47;59.18;102074.45;457018;115;922648;-94
2021/11/18 03:29:09;;;;;;;65.40;36.57;;;;;;;-4.46;59.22;102071.69;457270;114;922428;-95
2021/11/18 03:30:22;;;;;;;72.68;39.06;;;;;;;-4.43;59.23;102071.54;448469;116;922659;-93
2021/11/18 03:31:26;;;;;;;76.87;38.63;;;;;;;-4.41;59.16;102066.97;447735;117;922499;-95
2021/11/18 03:32:31;;;;;;;68.32;39.09;;;;;;;-4.40;59.19;102068.70;456700;115;923062;-93
2021/11/18 03:33:41;;;;;;;71.41;39.82;;;;;;;-4.39;59.15;102066.90;457049;115;922463;-94
2021/11/18 03:34:48;;;;;;;80.17;40.91;;;;;;;-4.39;59.18;102057.11;456324;115;922573;-93
2021/11/18 03:35:54;;;;;;;85.77;43.92;;;;;;;-4.38;59.16;102068.63;457187;115;922197;-94
2021/11/18 03:37:00;;;;;;;82.80;44.06;;;;;;;-4.39;59.15;102074.89;457232;114;922650;-96
2021/11/18 03:38:05;;;;;;;87.78;45.19;;;;;;;-4.41;59.15;102072.30;432917;120;922204;-89
2021/11/18 03:39:11;;;;;;;74.49;43.39;;;;;;;-4.41;59.16;102074.13;448468;115;922919;-93
2021/11/18 03:40:19;;;;;;;68.13;39.56;;;;;;;-4.42;59.15;102059.09;457198;115;922662;-94
2021/11/18 03:41:27;;;;;;;59.26;34.09;;;;;;;-4.43;59.08;102062.69;448258;117;922093;-94
2021/11/18 03:42:31;;;;;;;61.59;32.78;;;;;;;-4.43;59.09;102074.20;448642;115;922272;-90
2021/11/18 03:43:41;;;;;;;55.59;32.47;;;;;;;-4.44;59.00;102072.48;457310;114;922703;-92
2021/11/18 03:44:46;;;;;;;53.16;32.14;;;;;;;-4.46;58.90;102068.16;457546;114;930194;-92
2021/11/18 03:45:51;;;;;;;55.20;30.86;;;;;;;-4.48;58.95;102064.74;457476;114;922412;-93
2021/11/18 03:46:58;;;;;;;56.98;32.65;;;;;;;-4.50;59.00;102071.94;456907;115;930346;-96
2021/11/18 03:48:07;;;;;;;59.57;33.48;;;;;;;-4.51;59.01;102071.08;457794;115;930388;-94
2021/11/18 03:49:19;;;;;;;61.43;33.89;;;;;;;-4.53;58.91;102066.80;455572;115;922560;-93
2021/11/18 03:50:27;;;;;;;59.00;35.54;;;;;;;-4.56;58.92;102073.13;447581;117;922564;-91
2021/11/18 03:51:32;;;;;;;72.52;37.32;;;;;;;-4.58;58.91;102075.03;449778;116;922598;-94
2021/11/18 03:52:40;;;;;;;59.53;36.96;;;;;;;-4.61;58.95;102080.50;457487;115;922360;-92
2021/11/18 03:53:46;;;;;;;61.23;36.78;;;;;;;-4.63;59.02;102077.91;458184;114;922195;-91
2021/11/18 03:54:50;;;;;;;61.68;35.18;;;;;;;-4.64;59.11;102075.35;456778;115;922499;-92
2021/11/18 03:55:55;;;;;;;65.11;35.92;;;;;;;-4.63;59.20;102077.05;457283;114;930259;-93
2021/11/18 03:57:04;;;;;;;71.37;37.76;;;;;;;-4.63;59.21;102079.70;456982;114;922622;-95
2021/11/18 03:58:08;;;;;;;63.17;36.17;;;;;;;-4.65;59.16;102077.15;457868;114;922205;-93
2021/11/18 03:59:23;;;;;;;63.25;35.03;;;;;;;-4.66;59.22;102078.08;450830;117;922375;-93
2021/11/18 04:00:31;;;;;;;61.73;34.79;;;;;;;-4.65;59.36;102084.27;437610;119;922350;-94
2021/11/18 04:01:36;;;;;;;60.09;34.58;;;;;;;-4.65;59.38;102077.15;443657;116;922467;-93
2021/11/18 04:02:40;;;;;;;62.14;35.71;;;;;;;-4.66;59.05;102082.55;457093;115;922158;-94
2021/11/18 04:03:45;;;;;;;61.39;34.78;;;;;;;-4.68;59.28;102081.75;457583;114;922512;-93
2021/11/18 04:04:59;;;;;;;58.45;33.24;;;;;;;-4.69;59.28;102080.06;457342;114;922788;-93
2021/11/18 04:05:58;;;;;;;57.22;32.16;;;;;;;-4.70;59.21;102083.66;457827;112;922351;-95
2021/11/18 04:07:02;;;;;;;60.62;32.94;;;;;;;-4.75;59.12;102083.90;449237;117;923010;-94
2021/11/18 04:08:08;;;;;;;61.91;33.28;;;;;;;-4.79;59.15;102076.99;458549;110;922255;-90
2021/11/18 04:09:13;;;;;;;57.37;31.83;;;;;;;-4.81;59.36;102072.71;457781;112;922272;-93
2021/11/18 04:10:21;;;;;;;57.09;32.70;;;;;;;-4.81;59.47;102078.90;458258;114;922270;-95
2021/11/18 04:11:27;;;;;;;62.72;33.94;;;;;;;-4.81;59.56;102080.70;457501;114;922259;-94
2021/11/18 04:12:33;;;;;;;58.86;34.99;;;;;;;-4.81;59.57;102086.02;447598;116;922357;-94
2021/11/18 04:13:39;;;;;;;61.40;34.73;;;;;;;-4.84;59.55;102080.84;440849;117;922477;-95
2021/11/18 04:14:44;;;;;;;62.28;33.89;;;;;;;-4.87;59.54;102081.88;440683;118;922455;-92
2021/11/18 04:15:51;;;;;;;67.31;33.99;;;;;;;-4.89;59.64;102080.22;446931;116;923071;-95
2021/11/18 04:16:58;;;;;;;59.39;34.69;;;;;;;-4.90;59.73;102082.02;447699;116;922575;-91
2021/11/18 04:18:03;;;;;;;58.11;33.94;;;;;;;-4.89;59.78;102074.89;456770;115;922581;-93
2021/11/18 04:19:09;;;;;;;65.08;34.17;;;;;;;-4.88;59.82;102073.96;456753;114;930378;-91
2021/11/18 04:20:16;;;;;;;59.88;32.16;;;;;;;-4.86;59.87;102070.30;457101;113;922644;-92
2021/11/18 04:21:20;;;;;;;59.86;33.58;;;;;;;-4.86;59.99;102075.62;457361;113;923096;-93
2021/11/18 04:22:24;;;;;;;60.34;34.12;;;;;;;-4.83;59.97;102075.44;448453;116;922910;-95
2021/11/18 04:23:28;;;;;;;64.83;34.09;;;;;;;-4.82;59.83;102073.65;448103;116;922560;-94
2021/11/18 04:24:34;;;;;;;57.06;32.99;;;;;;;-4.83;59.81;102075.44;457119;114;922173;-92
2021/11/18 04:25:40;;;;;;;62.83;34.34;;;;;;;-4.83;59.73;102074.58;457632;115;922974;-94
2021/11/18 04:26:47;;;;;;;53.29;31.93;;;;;;;-4.87;59.58;102076.55;447244;116;922393;-95
2021/11/18 04:27:51;;;;;;;59.29;32.14;;;;;;;-4.91;59.55;102077.66;449086;116;922574;-93
2021/11/18 04:28:55;;;;;;;54.79;30.83;;;;;;;-4.96;59.56;102074.34;455503;114;922569;-94
2021/11/18 04:30:00;;;;;;;54.96;31.52;;;;;;;-4.98;59.74;102075.38;447275;116;922601;-93
2021/11/18 04:31:07;;;;;;;51.29;30.74;;;;;;;-4.99;59.77;102082.50;456477;114;930464;-94
2021/11/18 04:32:16;;;;;;;46.92;28.83;;;;;;;-4.99;59.89;102079.84;456407;114;930302;-93
2021/11/18 04:33:23;;;;;;;41.81;27.78;;;;;;;-4.96;59.85;102073.52;456158;114;922562;-94
2021/11/18 04:34:28;;;;;;;49.55;30.04;;;;;;;-4.96;59.87;102079.67;457460;114;923054;-93
2021/11/18 04:35:33;;;;;;;44.22;28.39;;;;;;;-4.96;59.86;102079.67;448532;117;921988;-92
2021/11/18 04:36:39;;;;;;;51.28;29.06;;;;;;;-4.94;59.94;102077.80;449163;116;922680;-93
2021/11/18 04:37:43;;;;;;;44.51;28.21;;;;;;;-4.92;59.97;102086.58;457603;114;923029;-93
2021/11/18 04:38:47;;;;;;;46.42;27.68;;;;;;;-4.90;59.77;102089.99;446446;116;922654;-95
2021/11/18 04:39:56;;;;;;;42.34;27.32;;;;;;;-4.89;59.77;102089.06;447438;114;922535;-93
2021/11/18 04:41:01;;;;;;;49.61;27.72;;;;;;;-4.88;59.73;102082.81;448128;117;922608;-92
2021/11/18 04:42:06;;;;;;;41.53;27.51;;;;;;;-4.90;59.54;102084.67;440834;118;922557;-92
2021/11/18 04:43:11;;;;;;;41.10;27.32;;;;;;;-4.92;59.48;102091.03;447683;117;922576;-93
2021/11/18 04:44:15;;;;;;;46.65;28.53;;;;;;;-4.95;59.46;102096.48;447829;114;922616;-94
2021/11/18 04:45:22;;;;;;;44.27;27.00;;;;;;;-4.97;59.58;102091.27;447257;118;922886;-94
2021/11/18 04:46:27;;;;;;;40.69;26.98;;;;;;;-4.97;59.66;102087.75;456928;115;922616;-95
2021/11/18 04:47:32;;;;;;;43.08;27.81;;;;;;;-4.97;59.63;102090.41;455816;114;922955;-94
2021/11/18 04:48:38;;;;;;;42.08;26.81;;;;;;;-4.96;59.63;102095.63;456885;114;922520;-91
2021/11/18 04:49:47;;;;;;;41.74;27.21;;;;;;;-4.93;59.65;102091.96;457736;115;923009;-92
2021/11/18 04:51:01;;;;;;;41.69;25.38;;;;;;;-4.92;59.57;102085.71;446556;117;922616;-92
2021/11/18 04:52:07;;;;;;;51.49;27.51;;;;;;;-4.93;59.56;102081.33;448310;116;922900;-92
2021/11/18 04:53:13;;;;;;;45.57;27.71;;;;;;;-4.93;59.50;102079.53;447790;117;922451;-95
2021/11/18 04:54:17;;;;;;;43.18;28.06;;;;;;;-4.92;59.55;102083.05;448909;116;922241;-91
2021/11/18 04:55:24;;;;;;;50.48;28.29;;;;;;;-4.93;59.51;102084.84;458167;114;922008;-91
2021/11/18 04:56:29;;;;;;;47.15;27.93;;;;;;;-4.92;59.46;102086.58;449143;112;928459;-92
2021/11/18 04:57:34;;;;;;;44.18;27.63;;;;;;;-4.92;59.31;102078.59;457303;113;922523;-90
2021/11/18 04:58:39;;;;;;;43.09;26.87;;;;;;;-4.94;59.13;102079.59;458215;113;922241;-92
2021/11/18 04:59:43;;;;;;;48.71;29.61;;;;;;;-4.96;59.22;102089.48;457593;111;922605;-93
2021/11/18 05:00:51;;;;;;;42.65;27.29;;;;;;;-4.97;59.29;102085.09;457240;113;922372;-91
2021/11/18 05:01:56;;;;;;;47.69;28.13;;;;;;;-4.97;59.34;102087.75;447965;116;930081;-94
2021/11/18 05:03:01;;;;;;;50.44;29.08;;;;;;;-4.96;59.32;102084.98;456006;114;922281;-93
2021/11/18 05:04:09;;;;;;;49.32;28.98;;;;;;;-4.98;59.21;102089.55;452741;112;922539;-92
2021/11/18 05:05:17;;;;;;;47.70;28.64;;;;;;;-4.97;59.19;102090.41;449927;117;922600;-92
2021/11/18 05:06:22;;;;;;;55.01;30.88;;;;;;;-4.98;59.23;102086.88;442038;119;922800;-93
2021/11/18 05:07:26;;;;;;;57.46;30.71;;;;;;;-5.00;59.15;102091.41;450929;117;922711;-93
2021/11/18 05:08:30;;;;;;;59.64;32.45;;;;;;;-5.01;59.12;102092.34;450325;115;930269;-90
2021/11/18 05:09:35;;;;;;;54.10;30.58;;;;;;;-5.03;59.07;102091.58;429820;121;922982;-92
2021/11/18 05:10:40;;;;;;;54.71;31.96;;;;;;;-5.04;59.16;102092.52;430465;121;922761;-93
2021/11/18 05:11:46;;;;;;;59.23;32.09;;;;;;;-5.05;59.21;102093.45;429367;121;922629;-91
2021/11/18 05:12:53;;;;;;;55.73;33.97;;;;;;;-5.02;59.34;102092.44;428204;121;922624;-93
2021/11/18 05:13:58;;;;;;;57.94;33.38;;;;;;;-5.00;59.27;102096.73;436663;119;923124;-93
2021/11/18 05:15:05;;;;;;;58.08;32.18;;;;;;;-4.98;59.22;102094.00;427933;121;922453;-91
2021/11/18 05:16:12;;;;;;;62.54;33.59;;;;;;;-4.97;59.24;102093.93;426042;121;922324;-92
2021/11/18 05:17:17;;;;;;;62.57;33.34;;;;;;;-4.96;59.09;102090.30;427603;121;922499;-92